Time;durP1;ratioP1;P1;durP2;ratioP2;P2;SDS_P1;SDS_P2;PMS_P1;PMS_P2;Temp;Humidity;BMP_temperature;BMP_pressure;BME280_temperature;BME280_humidity;BME280_pressure;Samples;Min_cycle;Max_cycle;Signal;HPM_P1;HPM_P2
2023/03/17 00:02:12;;;;;;;;;;;;;;;27.59;56.95;101137.09;5046577;28;69889;-39
2023/03/17 00:04:42;;;;;;;;;;;;;;;27.72;57.92;101146.34;5042296;28;66183;-39
2023/03/17 00:07:16;;;;;;;;;;;;;;;27.81;58.19;101134.44;5045526;28;70734;-40
2023/03/17 00:09:46;;;;;;;;;;;;;;;27.92;58.34;101136.63;5045289;28;66817;-39
2023/03/17 00:12:16;;;;;;;;;;;;;;;28.00;59.45;101144.56;5045425;28;70289;-40
2023/03/17 00:14:47;;;;;;;;;;;;;;;28.09;59.87;101147.13;5041157;28;66208;-40
2023/03/17 00:17:17;;;;;;;;;;;;;;;28.16;60.46;101156.09;5048162;28;70307;-40
2023/03/17 00:19:47;;;;;;;;;;;;;;;28.15;62.68;101151.75;5056034;28;65436;-39
2023/03/17 00:22:21;;;;;;;;;;;;;;;28.07;63.77;101150.00;5048952;27;68921;-40
2023/03/17 00:24:51;;;;;;;;;;;;;;;28.07;64.08;101155.41;5045415;28;66922;-40
2023/03/17 00:27:23;;;;;;;;;;;;;;;28.03;64.15;101160.34;5045435;28;69708;-39
2023/03/17 00:29:53;;;;;;;;;;;;;;;28.00;64.39;101165.28;5050697;28;65300;-40
2023/03/17 00:32:23;;;;;;;;;;;;;;;27.97;64.17;101166.53;5043671;27;69675;-39
2023/03/17 00:34:55;;;;;;;;;;;;;;;28.01;64.23;101173.19;5040485;27;66074;-38
2023/03/17 00:37:25;;;;;;;;;;;;;;;28.01;64.44;101173.19;5040100;28;70377;-40
2023/03/17 00:39:56;;;;;;;;;;;;;;;28.00;64.51;101176.94;5045864;28;65540;-37
2023/03/17 00:42:26;;;;;;;;;;;;;;;28.02;64.67;101174.03;5040631;28;70661;-38
2023/03/17 00:44:57;;;;;;;;;;;;;;;28.09;64.40;101172.22;5039994;27;66869;-40
2023/03/17 00:47:27;;;;;;;;;;;;;;;28.13;61.59;101183.47;5040823;28;70005;-39
2023/03/17 00:49:58;;;;;;;;;;;;;;;28.18;60.84;101189.94;5044909;28;66642;-39
2023/03/17 00:52:29;;;;;;;;;;;;;;;28.24;59.67;101189.16;5046292;28;69766;-41
2023/03/17 00:54:59;;;;;;;;;;;;;;;28.29;59.32;101192.09;5048049;28;65928;-39
2023/03/17 00:57:29;;;;;;;;;;;;;;;28.34;58.98;101194.22;5043003;27;70615;-40
2023/03/17 01:00:00;;;;;;;;;;;;;;;28.39;58.77;101199.88;5075710;27;66265;-39
2023/03/17 01:02:31;;;;;;;;;;;;;;;28.43;58.72;101197.63;5050300;28;70251;-41
2023/03/17 01:05:01;;;;;;;;;;;;;;;28.47;58.38;101199.75;5052349;27;66025;-40
2023/03/17 01:07:35;;;;;;;;;;;;;;;28.50;58.30;101201.19;5062396;27;70112;-39
2023/03/17 01:10:12;;;;;;;;;;;;;;;28.54;57.52;101201.66;5043478;28;65131;-40
2023/03/17 01:12:44;;;;;;;;;;;;;;;28.57;57.30;101209.38;5050268;28;70091;-40
2023/03/17 01:15:15;;;;;;;;;;;;;;;28.60;57.51;101219.75;5043693;28;66759;-39
2023/03/17 01:17:45;;;;;;;;;;;;;;;28.63;57.46;101219.38;5047625;28;70117;-39
2023/03/17 01:20:22;;;;;;;;;;;;;;;28.65;57.20;101228.94;5046360;28;66243;-39
2023/03/17 01:22:52;;;;;;;;;;;;;;;28.68;56.78;101231.25;5084535;27;70652;-39
2023/03/17 01:25:24;;;;;;;;;;;;;;;28.71;56.57;101232.72;5046323;28;65992;-39
2023/03/17 01:27:58;;;;;;;;;;;;;;;28.74;56.39;101232.31;5048251;28;69338;-39
2023/03/17 01:30:30;;;;;;;;;;;;;;;28.76;56.75;101238.34;5049982;27;66418;-40
2023/03/17 01:33:00;;;;;;;;;;;;;;;28.79;56.13;101240.66;5046849;27;70439;-39
2023/03/17 01:35:35;;;;;;;;;;;;;;;28.81;56.02;101238.59;5043481;27;65765;-42
2023/03/17 01:38:07;;;;;;;;;;;;;;;28.84;56.21;101246.31;5052991;27;70297;-39
2023/03/17 01:40:41;;;;;;;;;;;;;;;28.86;56.05;101241.56;5048434;28;66236;-39
2023/03/17 01:43:12;;;;;;;;;;;;;;;28.89;55.96;101246.56;5051026;28;70298;-40
2023/03/17 01:46:05;;;;;;;;;;;;;;;28.92;55.78;101248.03;5046195;28;66021;-39
2023/03/17 01:48:39;;;;;;;;;;;;;;;28.94;55.80;101244.06;5045215;27;70287;-39
2023/03/17 01:51:13;;;;;;;;;;;;;;;28.98;55.42;101243.69;5061993;27;66516;-40
2023/03/17 01:53:46;;;;;;;;;;;;;;;29.00;55.64;101234.34;5053051;28;69771;-39
2023/03/17 01:56:16;;;;;;;;;;;;;;;29.02;55.33;101231.44;5050348;27;65280;-39
2023/03/17 01:58:51;;;;;;;;;;;;;;;29.04;54.87;101226.72;5059557;27;69455;-39
2023/03/17 02:01:24;;;;;;;;;;;;;;;29.07;54.91;101231.72;5054125;28;66777;-41
2023/03/17 02:03:55;;;;;;;;;;;;;;;29.10;55.19;101232.16;5042371;28;70352;-40
2023/03/17 02:06:26;;;;;;;;;;;;;;;29.13;55.10;101230.91;5043163;28;67707;-39
2023/03/17 02:08:58;;;;;;;;;;;;;;;29.14;55.03;101219.91;5041079;28;70003;-39
2023/03/17 02:11:28;;;;;;;;;;;;;;;29.17;54.50;101227.63;5044362;28;67077;-40
2023/03/17 02:13:59;;;;;;;;;;;;;;;29.20;54.33;101226.38;5041357;28;70299;-41
2023/03/17 02:16:29;;;;;;;;;;;;;;;29.23;54.34;101225.16;5041550;28;66406;-40
2023/03/17 02:18:59;;;;;;;;;;;;;;;29.25;54.78;101234.69;5080581;27;69487;-41
2023/03/17 02:21:33;;;;;;;;;;;;;;;29.28;54.19;101228.91;5051494;28;65918;-41
2023/03/17 02:24:07;;;;;;;;;;;;;;;29.31;54.08;101233.06;5041219;28;70716;-40
2023/03/17 02:26:37;;;;;;;;;;;;;;;29.33;54.11;101234.53;5040540;28;65623;-40
2023/03/17 02:29:10;;;;;;;;;;;;;;;29.36;54.06;101236.84;5040745;28;69500;-39
2023/03/17 02:31:43;;;;;;;;;;;;;;;29.39;54.37;101230.19;5084766;27;66730;-40
2023/03/17 02:34:14;;;;;;;;;;;;;;;29.42;54.24;101228.94;5041130;28;69766;-40
2023/03/17 02:36:45;;;;;;;;;;;;;;;29.44;53.68;101221.47;5041926;28;65741;-40
2023/03/17 02:39:16;;;;;;;;;;;;;;;29.48;53.77;101228.16;5053163;28;69348;-41
2023/03/17 02:41:47;;;;;;;;;;;;;;;29.50;54.07;101223.38;5050794;28;67045;-41
2023/03/17 02:44:17;;;;;;;;;;;;;;;29.53;53.95;101225.66;5043650;28;69645;-41
2023/03/17 02:46:47;;;;;;;;;;;;;;;29.55;54.11;101224.44;5050967;28;65790;-40
2023/03/17 02:49:18;;;;;;;;;;;;;;;29.58;54.00;101220.50;5047867;28;70137;-40
2023/03/17 02:51:48;;;;;;;;;;;;;;;29.60;53.55;101221.94;5054825;28;66430;-41
2023/03/17 02:54:19;;;;;;;;;;;;;;;29.63;53.86;101212.63;5048462;28;69718;-39
2023/03/17 02:56:49;;;;;;;;;;;;;;;29.66;53.55;101208.69;5041039;28;66169;-41
2023/03/17 02:59:20;;;;;;;;;;;;;;;29.69;53.52;101211.81;5043095;28;69708;-40
2023/03/17 03:01:50;;;;;;;;;;;;;;;29.72;53.56;101205.16;5042237;28;65338;-40
2023/03/17 03:04:20;;;;;;;;;;;;;;;29.74;53.68;101206.63;5040387;28;69655;-44
2023/03/17 03:06:51;;;;;;;;;;;;;;;29.77;53.25;101208.91;5047914;28;67134;-43
2023/03/17 03:09:21;;;;;;;;;;;;;;;29.80;53.55;101205.81;5051761;28;70774;-39
2023/03/17 03:11:51;;;;;;;;;;;;;;;29.83;53.56;101204.56;5045098;28;66358;-39
2023/03/17 03:14:21;;;;;;;;;;;;;;;29.86;53.61;101206.03;5045087;28;70453;-40
2023/03/17 03:16:51;;;;;;;;;;;;;;;29.89;53.43;101189.38;5040194;28;67215;-41
2023/03/17 03:19:23;;;;;;;;;;;;;;;29.91;53.33;101188.13;5039609;28;70608;-41
2023/03/17 03:21:54;;;;;;;;;;;;;;;29.96;52.97;101192.94;5042637;28;66304;-41
2023/03/17 03:24:24;;;;;;;;;;;;;;;29.97;53.29;101186.47;5041735;27;69740;-41
2023/03/17 03:26:55;;;;;;;;;;;;;;;30.00;53.23;101188.78;5051376;28;66388;-42
2023/03/17 03:29:25;;;;;;;;;;;;;;;30.03;53.08;101180.25;5056431;27;69946;-42
2023/03/17 03:31:55;;;;;;;;;;;;;;;30.06;52.73;101183.38;5040461;28;66443;-40
2023/03/17 03:34:26;;;;;;;;;;;;;;;30.07;53.24;101178.81;5055859;28;70075;-43
2023/03/17 03:36:56;;;;;;;;;;;;;;;30.12;52.93;101180.88;5043437;28;66053;-40
2023/03/17 03:39:27;;;;;;;;;;;;;;;30.14;53.07;101174.19;5047285;27;70884;-40
2023/03/17 03:41:57;;;;;;;;;;;;;;;30.17;52.97;101172.97;5050756;28;66622;-40
2023/03/17 03:44:27;;;;;;;;;;;;;;;30.19;52.40;101165.47;5048760;28;70028;-40
2023/03/17 03:46:57;;;;;;;;;;;;;;;30.23;52.66;101167.59;5041562;28;66173;-40
2023/03/17 03:49:28;;;;;;;;;;;;;;;30.25;52.42;101165.50;5041279;28;70124;-40
2023/03/17 03:51:59;;;;;;;;;;;;;;;30.28;52.70;101158.81;5042583;27;67050;-42
2023/03/17 03:54:29;;;;;;;;;;;;;;;30.31;52.13;101154.88;5048896;27;69714;-39
2023/03/17 03:56:59;;;;;;;;;;;;;;;30.34;52.21;101151.75;5040577;28;65791;-40
2023/03/17 03:59:29;;;;;;;;;;;;;;;30.37;52.54;101145.91;5039890;28;70680;-41
2023/03/17 04:02:00;;;;;;;;;;;;;;;30.39;52.33;101143.81;5053093;27;65142;-43
2023/03/17 04:04:30;;;;;;;;;;;;;;;30.42;52.32;101138.00;5051271;28;70000;-40
2023/03/17 04:07:01;;;;;;;;;;;;;;;30.45;51.77;101138.41;5057523;28;66071;-40
2023/03/17 04:09:31;;;;;;;;;;;;;;;30.47;52.15;101121.94;5042614;27;69945;-41
2023/03/17 04:12:02;;;;;;;;;;;;;;;30.49;52.04;101119.88;5042950;27;66028;-40
2023/03/17 04:14:32;;;;;;;;;;;;;;;30.52;51.79;101122.16;5041168;28;70028;-41
2023/03/17 04:17:04;;;;;;;;;;;;;;;30.55;51.78;101110.91;5039020;27;66269;-39
2023/03/17 04:19:35;;;;;;;;;;;;;;;30.57;52.12;101105.28;5051556;28;69549;-39
2023/03/17 04:22:07;;;;;;;;;;;;;;;30.58;51.71;101105.06;5039726;28;66602;-39
2023/03/17 04:24:38;;;;;;;;;;;;;;;30.61;51.67;101104.63;5038716;28;70747;-40
2023/03/17 04:27:09;;;;;;;;;;;;;;;30.63;51.39;101097.13;5042119;28;65965;-38
2023/03/17 04:29:40;;;;;;;;;;;;;;;30.66;51.72;101085.03;5050215;27;69801;-41
2023/03/17 04:32:12;;;;;;;;;;;;;;;30.67;51.51;101084.84;5058088;28;66023;-39
2023/03/17 04:34:42;;;;;;;;;;;;;;;30.69;51.51;101082.72;5044498;28;69705;-39
2023/03/17 04:37:12;;;;;;;;;;;;;;;30.71;51.24;101067.09;5044151;27;66142;-40
2023/03/17 04:39:42;;;;;;;;;;;;;;;30.25;51.59;100986.88;5043669;28;69668;-40
2023/03/17 04:42:13;;;;;;;;;;;;;;;30.75;51.12;101067.50;5043289;28;65491;-40
2023/03/17 04:44:43;;;;;;;;;;;;;;;30.77;51.48;101061.88;5054073;28;70444;-41
2023/03/17 04:47:13;;;;;;;;;;;;;;;30.79;51.05;101051.66;5043075;28;65861;-42
2023/03/17 04:49:43;;;;;;;;;;;;;;;30.80;51.31;101051.47;5044196;28;70018;-41
2023/03/17 04:52:13;;;;;;;;;;;;;;;30.82;51.17;101051.25;5041389;27;65843;-39
2023/03/17 04:54:44;;;;;;;;;;;;;;;30.85;51.03;101034.59;5052279;28;70497;-40
2023/03/17 04:57:14;;;;;;;;;;;;;;;30.87;51.23;101027.03;5053337;28;66231;-41
2023/03/17 04:59:45;;;;;;;;;;;;;;;30.89;51.08;101028.50;5054431;28;69208;-42
2023/03/17 05:02:15;;;;;;;;;;;;;;;30.91;50.79;101018.28;5056910;28;67256;-42
2023/03/17 05:04:45;;;;;;;;;;;;;;;30.95;51.17;101018.66;5048271;28;70709;-42
2023/03/17 05:07:15;;;;;;;;;;;;;;;30.96;51.07;101009.50;5050356;27;66195;-39
2023/03/17 05:09:46;;;;;;;;;;;;;;;30.99;50.81;101002.84;5045279;28;70127;-40
2023/03/17 05:12:16;;;;;;;;;;;;;;;31.02;50.85;101002.41;5050816;27;65913;-44
2023/03/17 05:14:46;;;;;;;;;;;;;;;31.04;50.86;101001.13;5047732;27;69334;-39
2023/03/17 05:17:16;;;;;;;;;;;;;;;31.07;50.86;101005.28;5048960;28;66626;-40
2023/03/17 05:19:47;;;;;;;;;;;;;;;31.09;50.56;100993.19;5051933;28;70368;-42
2023/03/17 05:22:17;;;;;;;;;;;;;;;31.11;50.78;100991.06;5050638;28;66508;-39
2023/03/17 05:24:48;;;;;;;;;;;;;;;31.14;50.65;100979.78;5062611;27;69325;-44
2023/03/17 05:27:18;;;;;;;;;;;;;;;31.16;50.67;100980.41;5051384;28;66341;-41
2023/03/17 05:29:49;;;;;;;;;;;;;;;31.20;50.48;100978.06;5029607;28;70099;-44
2023/03/17 05:32:19;;;;;;;;;;;;;;;31.23;50.43;100976.78;5047038;27;67055;-40
2023/03/17 05:34:50;;;;;;;;;;;;;;;31.25;50.46;100969.28;5044501;28;68967;-41
2023/03/17 05:37:21;;;;;;;;;;;;;;;31.26;50.50;100960.09;5042452;28;67036;-40
2023/03/17 05:39:52;;;;;;;;;;;;;;;31.29;50.20;100956.97;5052080;28;69167;-39
2023/03/17 05:42:22;;;;;;;;;;;;;;;31.30;50.42;100951.31;5046324;28;65923;-40
2023/03/17 05:44:53;;;;;;;;;;;;;;;31.32;50.15;100942.97;5075345;27;70648;-40
2023/03/17 05:47:23;;;;;;;;;;;;;;;31.35;50.36;100934.38;5046432;28;66921;-43
2023/03/17 05:49:53;;;;;;;;;;;;;;;31.37;50.39;100926.88;5044820;28;69792;-43
2023/03/17 05:52:23;;;;;;;;;;;;;;;31.39;50.35;100924.78;5049312;27;65494;-42
2023/03/17 05:54:54;;;;;;;;;;;;;;;31.42;50.45;100921.63;5044682;28;70263;-42
2023/03/17 05:57:25;;;;;;;;;;;;;;;31.46;49.87;100930.16;5047275;27;66855;-41
2023/03/17 05:59:55;;;;;;;;;;;;;;;31.48;50.15;100920.75;5045426;28;69122;-40
2023/03/17 06:02:25;;;;;;;;;;;;;;;31.52;50.25;100916.53;5053822;28;66718;-40
2023/03/17 06:04:56;;;;;;;;;;;;;;;31.54;49.95;100909.00;5052550;28;70499;-39
2023/03/17 06:07:28;;;;;;;;;;;;;;;31.56;49.94;100901.44;5049828;28;67139;-40
2023/03/17 06:10:20;;;;;;;;;;;;;;;31.59;49.70;100901.03;5066571;27;70633;-40
2023/03/17 06:12:51;;;;;;;;;;;;;;;31.61;49.92;100898.91;5054413;27;65571;-40
2023/03/17 06:15:22;;;;;;;;;;;;;;;31.66;49.90;100894.69;5051209;27;69814;-40
2023/03/17 06:17:55;;;;;;;;;;;;;;;31.68;49.84;100887.16;5051593;28;66810;-40
2023/03/17 06:20:25;;;;;;;;;;;;;;;31.70;50.03;100885.88;5078391;27;70029;-39
2023/03/17 06:22:55;;;;;;;;;;;;;;;31.73;49.73;100881.88;5049860;28;66170;-43
2023/03/17 06:25:34;;;;;;;;;;;;;;;31.77;49.88;100874.97;5050570;28;69549;-42
2023/03/17 06:28:06;;;;;;;;;;;;;;;31.80;49.69;100869.09;5051942;28;65619;-41
2023/03/17 06:30:37;;;;;;;;;;;;;;;31.84;49.21;100864.84;5048159;28;69478;-43
2023/03/17 06:33:08;;;;;;;;;;;;;;;31.87;49.37;100858.13;5052135;28;66829;-43
2023/03/17 06:35:39;;;;;;;;;;;;;;;31.91;49.65;100856.66;5048848;27;70035;-40
2023/03/17 06:38:09;;;;;;;;;;;;;;;31.93;49.35;100849.97;5052025;27;66607;-40
2023/03/17 06:40:40;;;;;;;;;;;;;;;31.98;49.35;100850.13;5056776;28;70230;-42
2023/03/17 06:43:10;;;;;;;;;;;;;;;32.01;49.11;100833.38;5045890;28;66999;-42
2023/03/17 06:45:40;;;;;;;;;;;;;;;32.05;49.10;100839.16;5037622;28;69850;-40
2023/03/17 06:48:11;;;;;;;;;;;;;;;32.09;49.17;100831.38;5041236;28;67024;-44
2023/03/17 06:50:41;;;;;;;;;;;;;;;32.10;48.94;100824.91;5043132;27;70390;-41
2023/03/17 06:53:11;;;;;;;;;;;;;;;32.13;49.04;100822.56;5044661;28;66948;-43
2023/03/17 06:55:42;;;;;;;;;;;;;;;32.16;48.94;100813.97;5051478;28;69969;-41
2023/03/17 06:58:12;;;;;;;;;;;;;;;32.20;49.12;100819.75;5043637;27;66886;-42
2023/03/17 07:00:44;;;;;;;;;;;;;;;32.21;48.92;100805.97;5039210;27;69846;-40
2023/03/17 07:03:14;;;;;;;;;;;;;;;32.24;48.99;100800.06;5042474;28;66253;-39
2023/03/17 07:05:45;;;;;;;;;;;;;;;32.26;48.73;100797.09;5039115;28;70296;-41
2023/03/17 07:08:16;;;;;;;;;;;;;;;32.29;48.68;100788.53;5049601;28;66031;-41
2023/03/17 07:10:47;;;;;;;;;;;;;;;32.31;48.52;100791.00;5042432;28;69980;-41
2023/03/17 07:13:18;;;;;;;;;;;;;;;32.34;48.71;100783.19;5055752;27;66475;-40
2023/03/17 07:15:48;;;;;;;;;;;;;;;32.38;48.42;100778.16;5046106;27;70825;-40
2023/03/17 07:18:22;;;;;;;;;;;;;;;32.42;48.30;100773.91;5059007;28;66056;-40
2023/03/17 07:20:52;;;;;;;;;;;;;;;32.44;48.34;100772.59;5040637;28;70558;-40
2023/03/17 07:23:23;;;;;;;;;;;;;;;32.47;48.25;100766.72;5050425;28;66587;-41
2023/03/17 07:25:54;;;;;;;;;;;;;;;32.49;48.38;100767.34;5052838;28;70594;-42
2023/03/17 07:28:24;;;;;;;;;;;;;;;32.30;48.32;100726.91;5053949;28;65939;-41
2023/03/17 07:30:56;;;;;;;;;;;;;;;32.56;48.18;100769.94;5045877;27;70116;-41
2023/03/17 07:33:27;;;;;;;;;;;;;;;32.62;48.07;100773.59;5046449;27;65978;-42
2023/03/17 07:35:57;;;;;;;;;;;;;;;32.66;48.26;100766.66;5039779;28;69141;-43
2023/03/17 07:38:27;;;;;;;;;;;;;;;32.67;48.16;100766.41;5043939;28;66112;-44
2023/03/17 07:40:58;;;;;;;;;;;;;;;32.72;47.97;100760.25;5044790;28;69885;-40
2023/03/17 07:43:28;;;;;;;;;;;;;;;32.76;48.09;100753.28;5039360;28;67486;-41
2023/03/17 07:45:59;;;;;;;;;;;;;;;32.78;47.90;100753.88;5048067;28;69872;-41
2023/03/17 07:48:32;;;;;;;;;;;;;;;32.81;47.95;100750.69;5051047;28;66011;-40
2023/03/17 07:51:04;;;;;;;;;;;;;;;32.84;47.81;100747.50;5043113;28;70560;-40
2023/03/17 07:53:34;;;;;;;;;;;;;;;32.87;47.83;100738.88;5063739;27;66028;-42
2023/03/17 07:56:05;;;;;;;;;;;;;;;32.88;47.77;100735.09;5045385;27;70055;-40
2023/03/17 07:58:35;;;;;;;;;;;;;;;32.91;47.84;100740.06;5042392;27;66126;-40
2023/03/17 08:01:07;;;;;;;;;;;;;;;32.96;47.68;100741.22;5047695;27;70673;-40
2023/03/17 08:03:37;;;;;;;;;;;;;;;32.98;47.75;100736.38;5053244;28;66621;-41
2023/03/17 08:06:09;;;;;;;;;;;;;;;33.03;47.68;100741.97;5049318;27;71003;-41
2023/03/17 08:08:40;;;;;;;;;;;;;;;33.06;47.82;100738.78;5053405;27;66182;-39
2023/03/17 08:11:10;;;;;;;;;;;;;;;33.08;47.54;100731.22;5049790;28;71235;-43
2023/03/17 08:13:40;;;;;;;;;;;;;;;33.10;47.59;100732.63;5057187;28;65633;-41
2023/03/17 08:16:10;;;;;;;;;;;;;;;33.12;47.55;100729.66;5049014;28;70659;-39
2023/03/17 08:18:41;;;;;;;;;;;;;;;33.18;47.43;100734.13;5059377;28;66883;-41
2023/03/17 08:21:12;;;;;;;;;;;;;;;33.20;47.43;100723.03;5044675;28;70518;-40
2023/03/17 08:23:43;;;;;;;;;;;;;;;33.21;47.38;100728.25;5060322;28;66189;-41
2023/03/17 08:26:14;;;;;;;;;;;;;;;33.26;47.63;100730.22;5046362;27;69135;-40
2023/03/17 08:28:45;;;;;;;;;;;;;;;33.26;47.06;100731.03;5049997;28;65567;-40
2023/03/17 08:31:17;;;;;;;;;;;;;;;33.28;47.35;100739.78;5045775;28;69790;-40
2023/03/17 08:33:51;;;;;;;;;;;;;;;33.30;47.23;100734.94;5054878;28;65655;-40
2023/03/17 08:36:21;;;;;;;;;;;;;;;33.33;47.09;100734.47;5052712;27;70737;-40
2023/03/17 08:38:52;;;;;;;;;;;;;;;33.35;47.15;100735.06;5078094;27;65479;-41
2023/03/17 08:41:23;;;;;;;;;;;;;;;33.40;46.99;100730.78;5042575;27;71852;-41
2023/03/17 08:43:54;;;;;;;;;;;;;;;33.41;46.82;100733.28;5047276;28;65995;-40
2023/03/17 08:46:26;;;;;;;;;;;;;;;33.42;46.90;100729.47;5056554;27;70670;-39
2023/03/17 08:48:57;;;;;;;;;;;;;;;33.43;46.92;100733.81;5046096;28;67478;-41
2023/03/17 08:51:33;;;;;;;;;;;;;;;33.46;46.75;100737.97;5046533;28;69533;-41
2023/03/17 08:54:04;;;;;;;;;;;;;;;33.48;46.96;100739.38;5051544;27;65628;-41
2023/03/17 08:56:35;;;;;;;;;;;;;;;33.50;46.88;100744.59;5049372;28;69430;-43
2023/03/17 08:59:06;;;;;;;;;;;;;;;33.52;46.97;100745.19;5051466;27;66808;-40
2023/03/17 09:01:37;;;;;;;;;;;;;;;33.54;47.27;100754.78;5047375;27;69825;-39
2023/03/17 09:04:07;;;;;;;;;;;;;;;33.55;46.87;100750.16;5052186;28;66141;-40
2023/03/17 09:06:37;;;;;;;;;;;;;;;33.58;46.73;100749.69;5048154;28;69253;-40
2023/03/17 09:09:22;;;;;;;;;;;;;;;33.61;46.97;100753.81;5046726;28;66183;-41
2023/03/17 09:11:53;;;;;;;;;;;;;;;33.63;46.82;100752.50;5051309;28;70164;-44
2023/03/17 09:14:23;;;;;;;;;;;;;;;33.64;46.66;100753.31;5046917;28;66435;-43
2023/03/17 09:16:54;;;;;;;;;;;;;;;33.67;46.58;100769.97;5051262;28;69728;-41
2023/03/17 09:19:25;;;;;;;;;;;;;;;33.70;46.39;100766.75;5053759;28;65464;-39
2023/03/17 09:21:55;;;;;;;;;;;;;;;33.41;47.39;100765.06;5046345;28;70080;-41
2023/03/17 09:24:26;;;;;;;;;;;;;;;33.46;47.77;100768.72;5048709;28;66135;-40
2023/03/17 09:26:58;;;;;;;;;;;;;;;33.56;47.67;100770.84;5046355;27;69740;-41
2023/03/17 09:29:29;;;;;;;;;;;;;;;33.60;47.54;100772.03;5043613;28;66441;-41
2023/03/17 09:32:00;;;;;;;;;;;;;;;33.64;47.87;100769.63;5051221;28;69933;-41
2023/03/17 09:34:31;;;;;;;;;;;;;;;33.65;47.81;100768.56;5047638;28;66964;-40
2023/03/17 09:37:01;;;;;;;;;;;;;;;33.43;47.52;100773.78;5043570;28;69111;-40
2023/03/17 09:39:32;;;;;;;;;;;;;;;33.20;48.70;100775.50;5043575;28;65820;-40
2023/03/17 09:42:22;;;;;;;;;;;;;;;33.05;48.99;100777.91;5049516;28;68608;-42
2023/03/17 09:45:08;;;;;;;;;;;;;;;32.94;49.22;100777.63;5047168;28;66379;-42
2023/03/17 09:47:52;;;;;;;;;;;;;;;32.86;49.76;100785.31;5043549;27;69876;-41
2023/03/17 09:50:38;;;;;;;;;;;;;;;32.83;49.87;100789.31;5042145;28;66875;-40
2023/03/17 09:53:17;;;;;;;;;;;;;;;32.80;50.14;100795.22;5043872;28;70453;-42
2023/03/17 09:55:51;;;;;;;;;;;;;;;32.78;49.83;100794.63;5045237;28;66813;-41
2023/03/17 09:58:27;;;;;;;;;;;;;;;32.76;49.97;100791.31;5044717;28;70262;-44
2023/03/17 10:00:58;;;;;;;;;;;;;;;32.72;50.31;100795.56;5047113;27;66099;-41
2023/03/17 10:03:29;;;;;;;;;;;;;;;32.72;50.31;100795.56;5046581;28;69825;-42
2023/03/17 10:06:15;;;;;;;;;;;;;;;32.70;50.32;100803.13;5044776;28;66290;-42
2023/03/17 10:09:12;;;;;;;;;;;;;;;32.70;50.22;100803.94;5052229;28;70268;-41
2023/03/17 10:11:46;;;;;;;;;;;;;;;32.70;50.38;100824.84;5049304;27;67082;-41
2023/03/17 10:14:37;;;;;;;;;;;;;;;32.45;50.18;100779.69;5046032;28;70841;-41
2023/03/17 10:17:10;;;;;;;;;;;;;;;32.69;50.64;100823.22;5048303;27;65869;-41
2023/03/17 10:19:43;;;;;;;;;;;;;;;32.69;50.04;100828.63;5044598;28;70012;-40
2023/03/17 10:22:20;;;;;;;;;;;;;;;32.64;49.62;100831.22;5043715;28;66909;-41
2023/03/17 10:24:52;;;;;;;;;;;;;;;32.61;49.14;100837.13;5047068;27;69340;-40
2023/03/17 10:27:22;;;;;;;;;;;;;;;32.59;49.27;100839.25;5042949;28;66419;-39
2023/03/17 10:29:53;;;;;;;;;;;;;;;32.56;49.17;100834.28;5044707;27;70057;-40
2023/03/17 10:32:25;;;;;;;;;;;;;;;32.56;49.39;100837.00;5043829;28;66040;-40
2023/03/17 10:34:56;;;;;;;;;;;;;;;32.53;49.53;100840.19;5048127;27;70605;-41
2023/03/17 10:37:28;;;;;;;;;;;;;;;32.50;49.33;100846.91;5043339;28;66691;-39
2023/03/17 10:39:59;;;;;;;;;;;;;;;32.52;49.66;100849.41;5042424;28;70497;-42
2023/03/17 10:42:31;;;;;;;;;;;;;;;32.47;50.17;100850.91;5062596;27;65704;-42
2023/03/17 10:45:39;;;;;;;;;;;;;;;32.48;50.11;100854.44;5042254;28;70645;-43
2023/03/17 10:48:17;;;;;;;;;;;;;;;32.42;50.38;100860.78;5058636;27;66636;-44
2023/03/17 10:50:47;;;;;;;;;;;;;;;32.40;50.90;100863.75;5044813;28;70531;-44
2023/03/17 10:53:28;;;;;;;;;;;;;;;32.40;50.78;100881.88;5065364;27;66244;-43
2023/03/17 10:56:08;;;;;;;;;;;;;;;32.39;50.95;100882.94;5041731;28;70414;-40
2023/03/17 10:58:48;;;;;;;;;;;;;;;32.33;51.00;100890.13;5043130;27;66379;-42
2023/03/17 11:01:29;;;;;;;;;;;;;;;32.25;51.54;100883.13;5044335;28;70457;-40
2023/03/17 11:04:01;;;;;;;;;;;;;;;32.21;53.48;100897.41;5047901;28;67074;-39
2023/03/17 11:06:42;;;;;;;;;;;;;;;32.23;53.97;100898.00;5048062;27;70643;-43
2023/03/17 11:09:17;;;;;;;;;;;;;;;32.23;54.24;100903.41;5043398;28;66812;-41
2023/03/17 11:11:49;;;;;;;;;;;;;;;32.26;54.86;100911.09;5044516;28;69921;-41
2023/03/17 11:14:25;;;;;;;;;;;;;;;32.25;55.45;100913.00;5040419;28;66291;-41
2023/03/17 11:16:58;;;;;;;;;;;;;;;32.46;54.46;100906.28;5048471;27;70571;-45
2023/03/17 11:19:35;;;;;;;;;;;;;;;32.62;53.38;100909.38;5042676;28;65432;-44
2023/03/17 11:22:16;;;;;;;;;;;;;;;32.71;52.66;100913.44;5044916;28;70065;-41
2023/03/17 11:24:58;;;;;;;;;;;;;;;32.78;52.60;100919.59;5044293;28;66941;-42
2023/03/17 11:27:49;;;;;;;;;;;;;;;32.85;52.11;100931.19;5045121;27;69830;-43
2023/03/17 11:30:40;;;;;;;;;;;;;;;32.88;52.04;100929.91;5045428;28;66448;-40
2023/03/17 11:33:29;;;;;;;;;;;;;;;32.91;52.00;100941.13;5048490;28;70296;-42
2023/03/17 11:36:05;;;;;;;;;;;;;;;32.91;51.78;100941.13;5041167;28;66076;-41
2023/03/17 11:38:38;;;;;;;;;;;;;;;32.93;51.34;100943.59;5042051;27;69945;-42
2023/03/17 11:41:15;;;;;;;;;;;;;;;32.92;51.15;100948.19;5042096;27;66597;-42
2023/03/17 11:44:02;;;;;;;;;;;;;;;32.93;51.28;100949.88;5041861;27;68962;-42
2023/03/17 11:46:46;;;;;;;;;;;;;;;32.93;51.13;100960.75;5044587;28;65736;-43
2023/03/17 11:49:23;;;;;;;;;;;;;;;32.92;51.14;100958.25;5042874;28;70622;-43
2023/03/17 11:52:05;;;;;;;;;;;;;;;32.92;51.38;100971.84;5044693;27;66673;-40
2023/03/17 11:54:44;;;;;;;;;;;;;;;32.91;51.41;100965.56;5041820;28;69887;-42
2023/03/17 11:57:26;;;;;;;;;;;;;;;32.90;51.10;100972.09;5042639;28;66784;-42
2023/03/17 12:00:15;;;;;;;;;;;;;;;32.90;50.75;100972.09;5047773;28;69143;-42
2023/03/17 12:02:57;;;;;;;;;;;;;;;32.88;51.21;100976.91;5048789;28;67055;-42
2023/03/17 12:05:28;;;;;;;;;;;;;;;32.86;50.99;100970.06;5047317;27;70588;-43
2023/03/17 12:08:02;;;;;;;;;;;;;;;32.84;50.60;100978.41;5048442;28;65828;-41
2023/03/17 12:10:37;;;;;;;;;;;;;;;32.83;50.75;100984.94;5048739;28;70698;-43
2023/03/17 12:13:28;;;;;;;;;;;;;;;32.81;50.61;100995.19;5047242;28;66860;-43
2023/03/17 12:16:02;;;;;;;;;;;;;;;32.59;51.87;100986.72;5042390;28;69833;-42
2023/03/17 12:18:59;;;;;;;;;;;;;;;32.40;53.03;100988.63;5042934;28;67132;-40
2023/03/17 12:21:35;;;;;;;;;;;;;;;32.29;53.99;100992.09;5044277;28;70310;-42
2023/03/17 12:24:24;;;;;;;;;;;;;;;32.17;54.24;101000.16;5046997;28;65643;-43
2023/03/17 12:26:55;;;;;;;;;;;;;;;32.10;54.74;101002.13;5036373;28;70387;-40
2023/03/17 12:29:35;;;;;;;;;;;;;;;32.04;55.11;101001.16;5083807;27;66719;-42
2023/03/17 12:32:25;;;;;;;;;;;;;;;32.01;54.92;101009.75;5051146;27;70791;-41
2023/03/17 12:35:03;;;;;;;;;;;;;;;31.99;54.82;101009.13;5048350;27;66704;-46
2023/03/17 12:37:35;;;;;;;;;;;;;;;31.97;54.99;101016.66;5043429;27;69783;-42
2023/03/17 12:40:08;;;;;;;;;;;;;;;31.96;54.96;101020.44;5049382;28;67074;-41
2023/03/17 12:42:46;;;;;;;;;;;;;;;31.96;55.16;101025.03;5037419;28;69940;-39
2023/03/17 12:45:37;;;;;;;;;;;;;;;31.93;55.18;101023.59;5042872;28;66142;-43
2023/03/17 12:48:26;;;;;;;;;;;;;;;31.91;55.01;101028.41;5030733;28;69773;-43
2023/03/17 12:51:22;;;;;;;;;;;;;;;31.88;55.12;101033.44;5054163;28;67170;-45
2023/03/17 12:53:53;;;;;;;;;;;;;;;31.87;55.34;101040.72;5054253;28;69075;-46
2023/03/17 12:56:26;;;;;;;;;;;;;;;31.83;55.49;101029.50;5050896;28;66355;-47
2023/03/17 12:58:59;;;;;;;;;;;;;;;31.81;55.70;101033.47;5049414;27;70016;-44
2023/03/17 13:01:43;;;;;;;;;;;;;;;31.81;55.96;101036.19;5053388;28;66068;-44
2023/03/17 13:04:28;;;;;;;;;;;;;;;31.79;55.88;101041.03;5057191;28;69248;-44
2023/03/17 13:07:14;;;;;;;;;;;;;;;31.77;55.97;101035.00;5050172;27;66571;-43